createdAt,value
2022-10-11T00:09:02.043Z,65.54
2022-10-11T00:19:06.483Z,65.01
2022-10-11T00:29:09.647Z,64.73
2022-10-11T00:39:14.672Z,64.31
2022-10-11T00:49:23.166Z,64.53
2022-10-11T00:59:29.522Z,65.39
2022-10-11T01:09:33.055Z,64.65
2022-10-11T01:19:54.709Z,64.97
2022-10-11T01:30:05.464Z,64.91
2022-10-11T01:40:12.922Z,65.11
2022-10-11T01:50:41.870Z,65.23
2022-10-11T02:00:55.591Z,65.95
2022-10-11T02:11:02.197Z,65.07
2022-10-11T02:21:08.698Z,65.35
2022-10-11T02:31:12.529Z,65.31
2022-10-11T02:41:24.219Z,65.04
2022-10-11T02:51:28.047Z,66.90
2022-10-11T03:01:32.645Z,66.89
2022-10-11T03:11:35.903Z,67.07
2022-10-11T03:21:40.335Z,66.88
2022-10-11T03:31:43.449Z,66.38
2022-10-11T03:41:47.917Z,67.18
2022-10-11T03:51:50.999Z,67.67
2022-10-11T04:01:55.488Z,68.54
2022-10-11T04:11:58.648Z,68.59
2022-10-11T04:22:03.107Z,68.84
2022-10-11T04:32:06.290Z,67.83
2022-10-11T04:42:10.837Z,67.99
2022-10-11T04:52:13.858Z,67.96
2022-10-11T05:02:18.453Z,67.66
2022-10-11T05:12:21.547Z,67.04
2022-10-11T05:22:26.109Z,67.44
2022-10-11T05:32:29.271Z,67.14
2022-10-11T05:42:33.847Z,67.49
2022-10-11T05:52:37.179Z,68.53
2022-10-11T06:02:41.977Z,67.25
2022-10-11T06:12:45.076Z,67.05
2022-10-11T06:22:49.504Z,66.17
2022-10-11T06:32:52.624Z,65.33
2022-10-11T06:42:57.080Z,64.53
2022-10-11T06:53:00.347Z,61.53
2022-10-11T07:03:04.991Z,57.68
2022-10-11T07:13:08.060Z,53.23
2022-10-11T07:23:12.535Z,51.26
2022-10-11T07:33:15.696Z,48.92
2022-10-11T07:43:20.186Z,48.93
2022-10-11T07:53:23.251Z,48.73
2022-10-11T08:03:27.737Z,48.14
2022-10-11T08:13:30.807Z,46.69
2022-10-11T08:23:35.355Z,49.66
2022-10-11T08:33:38.414Z,50.38
2022-10-11T08:43:46.327Z,49.98
2022-10-11T08:53:54.560Z,48.52
2022-10-11T09:04:00.116Z,47.15
2022-10-11T09:14:24.939Z,46.85
2022-10-11T09:24:40.554Z,45.96
2022-10-11T09:34:44.191Z,46.98
2022-10-11T09:44:50.153Z,47.80
2022-10-11T09:54:56.282Z,47.57
2022-10-11T10:05:15.338Z,47.67
2022-10-11T10:15:20.144Z,47.15
2022-10-11T10:25:28.505Z,47.35
2022-10-11T10:35:34.517Z,46.12
2022-10-11T10:45:50.355Z,46.85
2022-10-11T10:55:59.112Z,46.32
2022-10-11T11:06:06.265Z,46.22
2022-10-11T11:16:14.919Z,47.17
2022-10-11T11:26:26.368Z,46.52
2022-10-11T11:36:37.233Z,46.96
2022-10-11T11:46:45.320Z,45.44
2022-10-11T11:56:58.034Z,46.58
2022-10-11T12:07:16.017Z,46.22
2022-10-11T12:17:21.986Z,46.41
2022-10-11T12:27:40.312Z,49.76
2022-10-11T12:37:52.363Z,47.71
2022-10-11T12:48:17.497Z,48.03
2022-10-11T12:58:38.841Z,45.99
2022-10-11T13:08:47.155Z,47.27
2022-10-11T13:18:52.127Z,45.81
2022-10-11T13:28:56.816Z,45.44
2022-10-11T13:39:01.512Z,45.63
2022-10-11T13:49:26.375Z,44.86
2022-10-11T13:59:29.482Z,45.50
2022-10-11T14:09:36.060Z,43.17
2022-10-11T14:19:39.514Z,42.88
2022-10-11T14:30:00.299Z,43.28
2022-10-11T14:40:13.954Z,43.32
2022-10-11T14:50:39.123Z,45.07
2022-10-11T15:00:42.235Z,45.42
2022-10-11T15:10:46.703Z,46.00
2022-10-11T15:20:51.298Z,45.18
2022-10-11T15:30:56.129Z,46.11
2022-10-11T15:40:59.485Z,46.82
2022-10-11T15:51:03.929Z,47.71
2022-10-11T16:01:08.969Z,48.53
2022-10-11T16:11:13.887Z,50.41
2022-10-11T16:21:17.068Z,51.97
2022-10-11T16:31:21.485Z,53.65
2022-10-11T16:41:24.586Z,55.02
2022-10-11T16:51:30.440Z,56.22
2022-10-11T17:01:33.531Z,57.31
2022-10-11T17:11:38.084Z,58.63
2022-10-11T17:21:41.762Z,59.37
2022-10-11T17:31:49.334Z,59.74
2022-10-11T17:41:55.249Z,60.67
2022-10-11T17:51:59.666Z,60.99
2022-10-11T18:02:03.842Z,60.98
2022-10-11T18:12:08.663Z,61.61
2022-10-11T18:22:11.810Z,61.92
2022-10-11T18:32:18.123Z,62.06
2022-10-11T18:42:22.998Z,62.71
2022-10-11T18:52:27.654Z,63.53
2022-10-11T19:02:30.778Z,63.59
2022-10-11T19:12:35.367Z,63.96
2022-10-11T19:22:38.520Z,64.80
2022-10-11T19:32:42.942Z,64.55
2022-10-11T19:42:46.039Z,64.15
2022-10-11T19:52:50.744Z,64.07
2022-10-11T20:02:53.903Z,64.26
2022-10-11T20:12:58.728Z,65.19
2022-10-11T20:23:01.796Z,65.47
2022-10-11T20:33:06.287Z,65.90
2022-10-11T20:43:09.432Z,66.02
2022-10-11T20:53:16.348Z,65.96
2022-10-11T21:03:19.913Z,65.61
2022-10-11T21:13:24.513Z,65.66
2022-10-11T21:23:27.681Z,65.32
2022-10-11T21:33:32.176Z,66.34
2022-10-11T21:43:36.149Z,66.53
2022-10-11T21:53:40.661Z,66.32
2022-10-11T22:03:43.859Z,66.19
2022-10-11T22:13:49.434Z,66.59
2022-10-11T22:23:54.112Z,66.73
2022-10-11T22:34:00.335Z,67.01
2022-10-11T22:44:03.543Z,66.71
2022-10-11T22:54:07.976Z,66.61
2022-10-11T23:04:11.092Z,66.83
2022-10-11T23:14:15.645Z,66.29
2022-10-11T23:24:18.740Z,67.70
2022-10-11T23:34:23.246Z,67.34
2022-10-11T23:44:26.539Z,68.75
2022-10-11T23:54:31.054Z,68.37
